This is the latest recevied weather packets stored in our database for station/object OE-11349. If no packets are shown the sender has not sent any weather packets the latest 10 day(s).
| Time | Temp. | Humidity | Pressure | Rain* | Wind** | Luminosity | Snow |
|---|---|---|---|---|---|---|---|
| 1787908281 | 20.56° C | 67% | 853.4 hPa | - | - | 647 W/m² | - |
| 1787907909 | 19.44° C | 67% | 853.8 hPa | - | - | 502 W/m² | - |
| 1787907309 | 20.56° C | 62% | 853.6 hPa | - | - | 585 W/m² | - |
| 1787906481 | 20.56° C | 58% | 853.6 hPa | - | - | 551 W/m² | - |
| 1787906107 | 18.89° C | 66% | 853.7 hPa | - | - | 413 W/m² | - |
| 1787904682 | 18.89° C | 66% | 853.7 hPa | - | - | 310 W/m² | - |
| 1787904309 | 18.33° C | 66% | 854.1 hPa | - | - | 275 W/m² | - |
| 1787903709 | 17.78° C | 69% | 854.1 hPa | - | - | 193 W/m² | - |
| 1787902881 | 17.78° C | 69% | 854 hPa | - | - | 172 W/m² | - |
| 1787902509 | 17.22° C | 70% | 853.9 hPa | - | - | 165 W/m² | - |
| 1787901909 | 17.22° C | 74% | 853.9 hPa | - | - | 138 W/m² | - |
| 1787901081 | 17.22° C | 73% | 853.9 hPa | - | - | 145 W/m² | - |
| 1787900708 | 17.22° C | 73% | 853.9 hPa | - | - | 165 W/m² | - |
| 1787900109 | 17.22° C | 74% | 854.1 hPa | - | - | 179 W/m² | - |
| 1787899282 | 17.22° C | 74% | 854 hPa | - | - | 172 W/m² | - |
| 1787898909 | 17.22° C | 76% | 854.3 hPa | - | - | 158 W/m² | - |
| 1787898309 | 16.67° C | 76% | 854.1 hPa | - | - | 158 W/m² | - |
| 1787897481 | 16.67° C | 75% | 854.1 hPa | - | - | 158 W/m² | - |
| 1787897108 | 16.67° C | 77% | 854.1 hPa | - | - | 138 W/m² | - |
| 1787896508 | 16.11° C | 79% | 854.1 hPa | - | - | 138 W/m² | - |
| 1787895681 | 16.11° C | 81% | 854.3 hPa | - | - | 110 W/m² | - |
| 1787895309 | 15.56° C | 81% | 854.1 hPa | - | - | 69 W/m² | - |
| 1787894709 | 15.56° C | 82% | 854.1 hPa | - | - | 48 W/m² | - |
| 1787893882 | 15.56° C | 81% | 854.1 hPa | - | - | 34 W/m² | - |
| 1787893509 | 15.56° C | 81% | 853.8 hPa | - | - | 21 W/m² | - |
* Rain since midnight (hover to see other rain measurements)
** Current wind speed in m/s (hover to see current wind gust speed)